Time;durP1;ratioP1;P1;durP2;ratioP2;P2;SDS_P1;SDS_P2;PMS_P1;PMS_P2;Temp;Humidity;BMP_temperature;BMP_pressure;BME280_temperature;BME280_humidity;BME280_pressure;Samples;Min_cycle;Max_cycle;Signal;HPM_P1;HPM_P2
2023/05/06 00:00:39;;;;;;;2.97;2.67;;;;;;;18.11;63.47;97934.56;8383539;28;20241;-70
2023/05/06 00:04:42;;;;;;;2.93;2.33;;;;;;;18.04;63.52;97935.97;8383277;28;20450;-70
2023/05/06 00:08:45;;;;;;;2.73;2.33;;;;;;;18.07;63.60;97920.03;8383278;28;20417;-69
2023/05/06 00:12:49;;;;;;;5.10;2.43;;;;;;;17.98;63.41;97917.16;8382773;28;20252;-69
2023/05/06 00:16:52;;;;;;;2.50;2.30;;;;;;;17.92;63.56;97919.41;8382322;28;20235;-69
2023/05/06 00:20:55;;;;;;;2.73;2.47;;;;;;;17.93;63.00;97918.44;8382576;28;20236;-70
2023/05/06 00:24:58;;;;;;;3.20;2.27;;;;;;;17.87;63.35;97919.72;8382434;28;20489;-70
2023/05/06 00:29:02;;;;;;;3.00;2.70;;;;;;;17.91;62.85;97908.06;8382364;28;20234;-69
2023/05/06 00:33:05;;;;;;;2.93;2.20;;;;;;;17.86;63.42;97923.31;8382163;28;20229;-69
2023/05/06 00:37:08;;;;;;;4.87;2.63;;;;;;;17.90;63.54;97916.06;8381925;28;20290;-69
2023/05/06 00:41:11;;;;;;;3.57;2.77;;;;;;;17.84;63.47;97909.50;8381804;28;20247;-69
2023/05/06 00:45:16;;;;;;;2.57;2.33;;;;;;;17.87;63.06;97906.63;8380413;28;20224;-69
2023/05/06 00:49:19;;;;;;;4.53;3.03;;;;;;;17.78;63.16;97916.00;8381117;28;20238;-70
2023/05/06 00:53:22;;;;;;;3.83;2.50;;;;;;;17.88;63.48;97917.97;8381132;28;20244;-70
2023/05/06 00:57:24;;;;;;;3.13;2.30;;;;;;;17.65;63.60;97882.97;8381604;28;20559;-69
2023/05/06 01:01:30;;;;;;;2.50;2.30;;;;;;;17.81;63.06;97909.69;8381010;28;20244;-70
2023/05/06 01:05:40;;;;;;;2.63;2.43;;;;;;;17.85;63.08;97915.56;8380935;28;20237;-69
2023/05/06 01:09:50;;;;;;;2.97;2.77;;;;;;;17.82;62.83;97921.84;8381337;28;20233;-69
2023/05/06 01:14:00;;;;;;;3.63;2.47;;;;;;;17.82;62.78;97914.00;8380577;28;20229;-69
2023/05/06 01:18:09;;;;;;;2.87;2.67;;;;;;;17.78;62.96;97917.75;8380781;28;20228;-69
2023/05/06 01:22:13;;;;;;;3.50;2.70;;;;;;;17.77;63.70;97922.19;8380489;28;20425;-69
2023/05/06 01:26:17;;;;;;;3.00;2.80;;;;;;;17.75;63.60;97918.84;8379909;28;20224;-69
2023/05/06 01:30:22;;;;;;;3.40;3.10;;;;;;;17.74;63.68;97917.19;8379085;28;20235;-70
2023/05/06 01:34:30;;;;;;;3.63;3.03;;;;;;;17.59;64.34;97919.16;8380002;28;20423;-69
2023/05/06 01:38:37;;;;;;;3.90;3.60;;;;;;;17.68;64.08;97909.75;8379868;28;20244;-69
2023/05/06 01:42:43;;;;;;;4.60;3.90;;;;;;;17.63;64.27;97916.28;8379939;28;20261;-70
2023/05/06 01:46:46;;;;;;;3.53;3.23;;;;;;;17.71;63.53;97909.53;8379721;28;20231;-69
2023/05/06 01:50:49;;;;;;;4.70;4.30;;;;;;;17.64;63.76;97907.50;8379711;28;20523;-69
2023/05/06 01:54:52;;;;;;;4.90;4.50;;;;;;;17.59;63.85;97900.81;8379468;28;20410;-69
2023/05/06 01:58:56;;;;;;;6.83;6.23;;;;;;;17.36;64.81;97901.66;8379722;28;20229;-69
2023/05/06 02:03:01;;;;;;;7.17;5.93;;;;;;;17.37;64.24;97892.88;8379142;28;20539;-69
2023/05/06 02:07:03;;;;;;;7.13;6.53;;;;;;;17.33;64.95;97896.66;8379209;28;20221;-69
2023/05/06 02:11:09;;;;;;;6.83;6.33;;;;;;;17.28;65.09;97881.28;8378911;28;20555;-69
2023/05/06 02:15:14;;;;;;;7.80;7.10;;;;;;;17.46;64.78;97902.69;8378805;28;20233;-69
2023/05/06 02:19:17;;;;;;;8.10;7.37;;;;;;;17.38;65.05;97905.84;8378619;28;20270;-69
2023/05/06 02:23:20;;;;;;;8.87;7.97;;;;;;;17.35;65.17;97905.25;8378058;28;20264;-70
2023/05/06 02:27:22;;;;;;;8.63;7.83;;;;;;;17.29;65.43;97909.13;8378603;28;20252;-70
2023/05/06 02:31:27;;;;;;;8.37;7.67;;;;;;;17.37;64.92;97912.03;8378551;28;20238;-70
2023/05/06 02:35:30;;;;;;;9.23;8.40;;;;;;;17.35;65.31;97911.31;8378195;28;20262;-69
2023/05/06 02:39:33;;;;;;;9.43;8.53;;;;;;;17.24;66.11;97905.19;8377944;28;20541;-69
2023/05/06 02:43:35;;;;;;;9.97;9.17;;;;;;;17.33;65.17;97907.97;8378230;28;20235;-69
2023/05/06 02:47:39;;;;;;;10.77;9.77;;;;;;;17.11;66.08;97889.53;8378299;28;20240;-70
2023/05/06 02:51:42;;;;;;;10.30;9.50;;;;;;;17.29;65.71;97901.28;8378321;28;20338;-69
2023/05/06 02:55:45;;;;;;;10.43;9.53;;;;;;;17.35;65.53;97908.69;8378290;28;20251;-70
2023/05/06 02:59:48;;;;;;;10.03;9.00;;;;;;;17.38;65.28;97905.84;8378126;28;20222;-70
2023/05/06 03:03:52;;;;;;;11.10;9.83;;;;;;;17.36;65.48;97902.53;8377818;28;20532;-69
2023/05/06 03:07:55;;;;;;;10.90;10.03;;;;;;;17.38;65.15;97895.38;8378480;28;20249;-69
2023/05/06 03:11:57;;;;;;;10.23;9.33;;;;;;;17.42;65.33;97893.38;8378101;28;20229;-70
2023/05/06 03:16:03;;;;;;;11.73;10.67;;;;;;;17.33;65.27;97889.66;8377896;28;20227;-70
2023/05/06 03:20:09;;;;;;;11.97;10.80;;;;;;;17.33;65.65;97905.34;8377778;28;20360;-69
2023/05/06 03:24:11;;;;;;;11.83;10.87;;;;;;;17.43;65.38;97902.06;8377434;28;20234;-70
2023/05/06 03:28:14;;;;;;;12.40;11.30;;;;;;;17.35;65.54;97911.31;8377753;28;20232;-70
2023/05/06 03:32:18;;;;;;;11.80;10.70;;;;;;;17.34;65.95;97904.41;8377684;28;20397;-70
2023/05/06 03:36:24;;;;;;;11.43;10.40;;;;;;;17.38;65.55;97899.75;8376942;28;20234;-70
2023/05/06 03:40:26;;;;;;;12.10;11.10;;;;;;;17.38;65.52;97899.75;8377343;28;20343;-70
2023/05/06 03:44:29;;;;;;;11.90;10.90;;;;;;;17.46;64.86;97902.69;8377663;28;20244;-70
2023/05/06 03:48:32;;;;;;;13.00;11.80;;;;;;;17.40;65.77;97900.47;8377792;28;20239;-70
2023/05/06 03:52:36;;;;;;;12.67;11.57;;;;;;;17.47;65.22;97895.66;8381161;28;20236;-70
2023/05/06 03:56:39;;;;;;;13.40;12.30;;;;;;;17.51;65.30;97899.72;8383424;28;20472;-70
2023/05/06 04:00:42;;;;;;;13.60;12.30;;;;;;;17.48;65.57;97902.56;8382938;28;20225;-70
2023/05/06 04:04:45;;;;;;;13.97;12.67;;;;;;;17.43;65.10;97907.31;8382704;28;20248;-70
2023/05/06 04:08:51;;;;;;;11.93;10.87;;;;;;;17.49;64.69;97901.59;8383124;28;20219;-70
2023/05/06 04:12:54;;;;;;;14.00;12.70;;;;;;;17.41;65.25;97899.56;8382960;28;20254;-69
2023/05/06 04:16:57;;;;;;;12.83;11.73;;;;;;;17.48;64.74;97908.63;8383055;28;20224;-70
2023/05/06 04:20:59;;;;;;;14.53;13.13;;;;;;;17.41;65.62;97907.41;8382902;28;20229;-69
2023/05/06 04:25:04;;;;;;;14.97;13.67;;;;;;;17.41;65.12;97915.25;8382636;28;20236;-70
2023/05/06 04:29:07;;;;;;;13.53;12.43;;;;;;;17.38;65.23;97923.31;8382660;28;20531;-69
2023/05/06 04:33:10;;;;;;;13.43;12.17;;;;;;;17.41;64.94;97915.25;8382026;28;20232;-70
2023/05/06 04:37:13;;;;;;;14.00;12.80;;;;;;;16.86;64.92;97852.06;8382129;28;20232;-70
2023/05/06 04:41:17;;;;;;;13.67;12.47;;;;;;;17.42;64.64;97927.41;8382380;28;20473;-70
2023/05/06 04:45:21;;;;;;;14.17;12.87;;;;;;;17.35;64.79;97921.78;8381807;28;20232;-70
2023/05/06 04:49:23;;;;;;;14.47;13.20;;;;;;;17.32;64.92;97932.44;8381637;28;20228;-70
2023/05/06 04:53:26;;;;;;;14.00;12.80;;;;;;;17.41;64.77;97933.59;8381377;28;20236;-70
2023/05/06 04:57:33;;;;;;;15.27;13.87;;;;;;;17.50;64.46;97932.09;8381721;28;20233;-70
2023/05/06 05:01:38;;;;;;;13.60;12.43;;;;;;;17.50;64.59;97935.53;8381214;28;20275;-69
2023/05/06 05:05:41;;;;;;;13.37;12.27;;;;;;;17.53;64.50;97937.09;8381024;28;20228;-69
2023/05/06 05:09:44;;;;;;;13.67;12.57;;;;;;;17.39;65.50;97932.84;8381228;28;20271;-69
2023/05/06 05:13:48;;;;;;;12.97;11.87;;;;;;;17.57;64.84;97942.00;8381204;28;20420;-69
2023/05/06 05:17:51;;;;;;;12.47;11.37;;;;;;;17.66;64.29;97948.31;8380939;28;20228;-69
2023/05/06 05:21:54;;;;;;;13.33;12.20;;;;;;;17.53;64.73;97951.00;8380845;28;20225;-69
2023/05/06 05:25:56;;;;;;;12.77;11.57;;;;;;;17.49;64.89;97952.19;8380428;28;20226;-69
2023/05/06 05:30:01;;;;;;;11.47;10.47;;;;;;;17.66;63.91;97956.19;8380342;28;20225;-69
2023/05/06 05:34:04;;;;;;;12.27;11.17;;;;;;;17.86;63.14;97953.91;8380076;28;20290;-70
2023/05/06 05:38:06;;;;;;;11.60;10.60;;;;;;;17.89;63.65;97957.13;8380230;28;20244;-69
2023/05/06 05:42:09;;;;;;;11.97;10.87;;;;;;;18.07;63.23;97956.72;8380298;28;20517;-70
2023/05/06 05:46:14;;;;;;;10.67;9.67;;;;;;;17.92;64.06;97948.22;8379982;28;20227;-69
2023/05/06 05:50:17;;;;;;;10.27;9.37;;;;;;;18.21;62.65;97956.50;8379908;28;20328;-69
2023/05/06 05:54:19;;;;;;;10.70;9.70;;;;;;;18.15;62.76;97956.97;8379106;28;20486;-69
2023/05/06 05:58:24;;;;;;;10.57;9.60;;;;;;;17.96;63.42;97955.72;8379239;28;20243;-70
2023/05/06 06:02:29;;;;;;;9.00;8.20;;;;;;;18.16;62.80;97958.63;8379379;28;20225;-69
2023/05/06 06:06:32;;;;;;;9.07;8.27;;;;;;;17.84;63.92;97951.41;8379612;28;20365;-70
2023/05/06 06:10:35;;;;;;;7.20;6.60;;;;;;;18.12;62.19;97955.41;8379607;28;20229;-69
2023/05/06 06:14:39;;;;;;;7.93;7.07;;;;;;;18.18;62.38;97961.97;8378894;28;20239;-70
2023/05/06 06:18:44;;;;;;;7.20;6.60;;;;;;;18.17;62.09;97969.00;8377229;28;20553;-70
2023/05/06 06:22:47;;;;;;;7.70;7.00;;;;;;;18.09;62.76;97970.53;8378216;28;20220;-71
2023/05/06 06:26:50;;;;;;;8.33;7.53;;;;;;;18.04;62.81;97972.66;8378900;28;20231;-70
2023/05/06 06:30:53;;;;;;;8.33;6.83;;;;;;;18.36;62.14;97976.31;8376235;28;20224;-70
2023/05/06 06:34:57;;;;;;;7.40;6.90;;;;;;;18.13;62.00;97980.66;8378760;28;20533;-69
2023/05/06 06:39:00;;;;;;;7.80;7.10;;;;;;;18.42;61.04;97974.19;8378426;28;20547;-69
2023/05/06 06:43:03;;;;;;;7.10;6.40;;;;;;;18.51;60.69;97970.84;8378411;28;20273;-69
2023/05/06 06:47:06;;;;;;;7.57;6.87;;;;;;;18.80;60.27;97979.13;8378210;28;20284;-69
2023/05/06 06:51:11;;;;;;;6.90;6.30;;;;;;;18.56;59.98;97987.06;8378224;28;20231;-70
2023/05/06 06:55:13;;;;;;;7.03;6.53;;;;;;;18.79;58.90;97992.31;8378312;28;20228;-70
2023/05/06 06:59:18;;;;;;;8.00;7.30;;;;;;;18.83;58.65;97994.63;8378225;28;20586;-69
2023/05/06 07:03:21;;;;;;;8.23;7.53;;;;;;;18.46;60.87;97994.78;8377619;28;20602;-69
2023/05/06 07:07:25;;;;;;;7.70;7.03;;;;;;;19.00;58.62;97989.84;8377831;28;20236;-69
2023/05/06 07:11:28;;;;;;;7.83;7.13;;;;;;;19.21;58.33;98010.94;8377707;28;20550;-70
2023/05/06 07:15:31;;;;;;;8.63;7.83;;;;;;;18.79;59.62;98003.66;8377739;28;20235;-69
2023/05/06 07:19:34;;;;;;;8.27;7.57;;;;;;;19.68;57.10;98008.94;8377321;28;20225;-70
2023/05/06 07:23:38;;;;;;;8.03;7.13;;;;;;;19.69;56.61;98003.56;8376930;28;20429;-69
2023/05/06 07:27:41;;;;;;;8.20;7.40;;;;;;;20.08;56.48;98003.91;8381676;28;20470;-69
2023/05/06 07:31:44;;;;;;;9.37;8.03;;;;;;;19.83;57.79;98020.84;8382268;28;20315;-69
2023/05/06 07:35:47;;;;;;;8.43;7.73;;;;;;;20.04;56.62;98013.00;8382623;28;20230;-69
2023/05/06 07:39:51;;;;;;;7.87;7.07;;;;;;;20.84;54.98;98013.38;8382989;28;20226;-69
2023/05/06 07:43:54;;;;;;;8.00;7.20;;;;;;;20.81;54.76;98006.59;8382847;28;20235;-70
2023/05/06 07:47:57;;;;;;;7.97;7.30;;;;;;;20.25;55.77;98017.44;8382802;28;20223;-70
2023/05/06 07:51:59;;;;;;;8.00;7.40;;;;;;;20.09;55.80;98021.34;8381999;28;20228;-70
2023/05/06 07:56:03;;;;;;;7.30;6.70;;;;;;;20.89;54.78;98019.94;8382880;28;20587;-70
2023/05/06 08:00:08;;;;;;;6.67;6.07;;;;;;;20.81;54.18;98025.03;8388436;28;20239;-69
2023/05/06 08:04:11;;;;;;;6.53;5.93;;;;;;;21.16;53.06;98023.78;8382351;28;20235;-69
2023/05/06 08:08:14;;;;;;;7.07;6.37;;;;;;;20.92;54.23;98023.25;8381178;28;20231;-70
2023/05/06 08:12:18;;;;;;;5.63;5.10;;;;;;;21.78;51.92;98031.56;8382621;28;20513;-69
2023/05/06 08:16:21;;;;;;;5.63;5.13;;;;;;;21.21;52.02;98040.00;8382469;28;20243;-70
2023/05/06 08:20:27;;;;;;;6.80;4.97;;;;;;;22.21;50.40;98036.44;8382785;28;20288;-69
2023/05/06 08:24:30;;;;;;;5.40;4.90;;;;;;;21.77;50.78;98036.00;8382592;28;20274;-69
2023/05/06 08:28:35;;;;;;;6.60;6.07;;;;;;;21.27;52.39;98039.47;8382506;28;20256;-69
2023/05/06 08:32:38;;;;;;;5.30;4.47;;;;;;;21.69;51.09;98049.03;8382470;28;20245;-70
2023/05/06 08:36:41;;;;;;;5.20;4.70;;;;;;;21.98;49.56;98042.97;8381451;28;20224;-69
2023/05/06 08:40:44;;;;;;;5.10;4.60;;;;;;;22.71;47.89;98042.50;8381711;28;20224;-68
2023/05/06 08:44:51;;;;;;;4.70;4.30;;;;;;;23.01;45.52;98044.06;8381545;28;20240;-69
2023/05/06 08:48:54;;;;;;;4.53;4.10;;;;;;;23.05;45.95;98052.56;8381574;28;20232;-69
2023/05/06 08:52:56;;;;;;;3.80;3.50;;;;;;;22.09;49.18;98048.09;8381689;28;20217;-69
2023/05/06 08:57:03;;;;;;;3.73;3.43;;;;;;;22.34;47.09;98023.00;8381220;28;20245;-68
2023/05/06 09:01:09;;;;;;;3.80;3.50;;;;;;;22.59;47.52;98053.22;8381616;28;20225;-70
2023/05/06 09:05:11;;;;;;;3.30;3.00;;;;;;;22.99;45.60;98035.47;8381180;28;20544;-69
2023/05/06 09:09:15;;;;;;;2.23;2.03;;;;;;;23.29;41.81;98044.97;8381304;28;20225;-70
2023/05/06 09:13:19;;;;;;;2.30;2.10;;;;;;;23.50;43.43;98047.34;8380679;28;20236;-71
2023/05/06 09:17:25;;;;;;;3.03;2.50;;;;;;;23.53;42.58;98043.56;8380733;28;20363;-70
2023/05/06 09:21:36;;;;;;;2.17;2.07;;;;;;;23.94;41.43;98044.03;8380876;28;20229;-70
2023/05/06 09:25:38;;;;;;;2.60;2.40;;;;;;;24.00;40.70;98046.06;8380820;28;20229;-70
2023/05/06 09:29:59;;;;;;;2.00;1.90;;;;;;;23.26;40.02;98047.88;8380725;28;20233;-70
2023/05/06 09:34:04;;;;;;;2.33;1.80;;;;;;;23.57;40.37;98026.44;8380867;28;20225;-71
2023/05/06 09:38:07;;;;;;;2.00;1.83;;;;;;;23.55;41.51;98018.69;8380277;28;20236;-70
2023/05/06 09:42:10;;;;;;;2.70;2.50;;;;;;;23.65;41.96;98039.75;8380820;28;20217;-70
2023/05/06 09:46:13;;;;;;;3.70;2.00;;;;;;;23.78;40.46;98027.03;8380317;28;20517;-70
2023/05/06 09:50:18;;;;;;;1.93;1.77;;;;;;;24.37;39.42;98032.66;8379457;28;20228;-70
2023/05/06 09:54:21;;;;;;;2.30;2.10;;;;;;;23.23;40.67;98038.44;8379662;28;20300;-70
2023/05/06 09:58:25;;;;;;;2.07;1.87;;;;;;;23.82;40.48;98022.28;8380361;28;20228;-70
2023/05/06 10:02:28;;;;;;;1.80;1.70;;;;;;;24.90;36.66;98019.44;8379663;28;20239;-70
2023/05/06 10:06:34;;;;;;;1.90;1.80;;;;;;;24.06;40.50;98018.19;8379347;28;20343;-70
2023/05/06 10:10:37;;;;;;;2.20;2.00;;;;;;;23.59;39.99;98020.03;8379578;28;20418;-70
2023/05/06 10:14:40;;;;;;;2.73;2.03;;;;;;;25.03;38.84;98016.38;8379523;28;20244;-70
2023/05/06 10:18:44;;;;;;;1.80;1.70;;;;;;;26.15;35.20;98015.22;8379623;28;20439;-70
2023/05/06 10:23:00;;;;;;;2.10;1.40;;;;;;;24.73;37.91;98019.38;8379162;28;20467;-70
2023/05/06 10:27:05;;;;;;;1.60;1.50;;;;;;;23.96;38.95;98018.28;8378815;28;20327;-70
2023/05/06 10:31:11;;;;;;;2.47;1.50;;;;;;;24.29;39.50;97994.72;8378868;28;20233;-70
2023/05/06 10:35:20;;;;;;;2.07;1.40;;;;;;;24.10;37.15;98009.78;8378594;28;20316;-69
2023/05/06 10:39:24;;;;;;;1.97;1.40;;;;;;;23.62;38.99;98017.06;8378181;28;20229;-69
2023/05/06 10:43:29;;;;;;;1.40;1.30;;;;;;;23.46;39.69;97993.13;8378703;28;20236;-69
2023/05/06 10:48:05;;;;;;;1.70;1.60;;;;;;;22.53;42.57;98010.75;8378620;28;20381;-68
2023/05/06 10:52:12;;;;;;;1.50;1.40;;;;;;;23.05;41.27;98005.03;8378258;28;20241;-68
2023/05/06 10:56:17;;;;;;;1.80;1.30;;;;;;;24.27;39.35;97989.56;8378441;28;20228;-70
2023/05/06 11:00:20;;;;;;;1.57;1.47;;;;;;;24.55;38.24;97989.47;8380647;28;20342;-70
2023/05/06 11:04:23;;;;;;;1.60;1.20;;;;;;;24.86;36.72;97991.63;8385282;28;20236;-68
2023/05/06 11:08:26;;;;;;;4.53;1.37;;;;;;;25.39;34.97;97989.72;8384864;28;20419;-70
2023/05/06 11:12:47;;;;;;;1.70;1.10;;;;;;;25.24;35.11;97992.97;8384398;28;20228;-69
2023/05/06 11:16:51;;;;;;;2.10;1.10;;;;;;;26.16;34.81;97995.66;8384345;28;20247;-70
2023/05/06 11:21:38;;;;;;;1.37;1.20;;;;;;;26.29;34.37;97987.16;8384462;28;20270;-69
2023/05/06 11:25:42;;;;;;;1.23;1.07;;;;;;;25.67;32.96;97930.09;8383975;28;20458;-69
2023/05/06 11:29:45;;;;;;;1.42;1.30;;;;;;;26.38;34.04;97993.31;8383997;28;20483;-69
2023/05/06 11:33:51;;;;;;;1.95;0.90;;;;;;;26.04;34.26;97994.31;8384082;28;20495;-69
2023/05/06 11:37:55;;;;;;;1.10;1.00;;;;;;;25.09;35.08;97987.44;8383613;28;20248;-69
2023/05/06 11:41:59;;;;;;;1.60;1.00;;;;;;;26.13;33.39;97990.66;8383876;28;20221;-69
2023/05/06 11:46:05;;;;;;;0.85;0.75;;;;;;;26.87;30.12;97985.25;8383108;28;20237;-69
2023/05/06 11:50:10;;;;;;;1.52;0.90;;;;;;;26.21;31.59;97981.88;8383842;28;20225;-70
2023/05/06 11:54:21;;;;;;;2.17;0.80;;;;;;;26.60;30.67;97967.88;8383510;28;20225;-70
2023/05/06 11:58:25;;;;;;;1.85;0.80;;;;;;;27.17;30.34;97988.97;8382826;28;20237;-70
2023/05/06 12:02:28;;;;;;;1.23;0.80;;;;;;;27.85;31.65;97976.78;8383565;28;20237;-69
2023/05/06 12:06:35;;;;;;;3.13;0.90;;;;;;;27.50;31.95;97984.31;8383035;28;20305;-69
2023/05/06 12:10:39;;;;;;;0.80;0.80;;;;;;;26.92;32.35;97977.59;8382259;28;20246;-69
2023/05/06 12:14:43;;;;;;;2.40;0.98;;;;;;;26.58;32.75;97981.34;8382252;28;20298;-67
2023/05/06 12:18:47;;;;;;;1.67;0.80;;;;;;;27.21;32.07;97990.28;8382531;28;20229;-68
2023/05/06 12:23:05;;;;;;;0.93;0.77;;;;;;;27.04;30.87;97970.09;8382532;28;20240;-67
2023/05/06 12:27:11;;;;;;;1.63;0.90;;;;;;;27.45;31.29;97972.56;8381922;28;20229;-67
2023/05/06 12:31:21;;;;;;;2.03;0.98;;;;;;;26.39;32.34;97979.03;8382365;28;20235;-67
2023/05/06 12:35:25;;;;;;;1.13;0.90;;;;;;;25.88;30.98;97979.19;8381059;28;20257;-67
2023/05/06 12:39:35;;;;;;;1.23;1.13;;;;;;;26.04;30.91;97971.25;8381771;28;20248;-67
2023/05/06 12:43:40;;;;;;;2.40;0.93;;;;;;;25.16;31.10;97974.38;8381858;28;20233;-67
2023/05/06 12:47:52;;;;;;;1.05;0.80;;;;;;;25.30;30.73;97968.50;8381724;28;20229;-67
2023/05/06 12:52:08;;;;;;;1.33;0.80;;;;;;;26.27;30.33;97970.56;8381665;28;20249;-66
2023/05/06 12:56:11;;;;;;;1.45;0.80;;;;;;;26.66;30.39;97972.53;8381415;28;20232;-69
2023/05/06 13:00:16;;;;;;;0.70;0.70;;;;;;;26.71;31.29;97968.38;8381664;28;20228;-69
2023/05/06 13:04:19;;;;;;;1.13;1.00;;;;;;;27.10;27.59;97972.88;8380445;28;20221;-70
2023/05/06 13:08:22;;;;;;;2.35;0.75;;;;;;;26.95;28.99;97966.63;8380877;28;20267;-68
2023/05/06 13:12:25;;;;;;;1.55;0.90;;;;;;;27.06;28.61;97936.19;8381324;28;20229;-68
2023/05/06 13:16:31;;;;;;;1.20;0.80;;;;;;;27.17;29.71;97962.38;8380909;28;20434;-69
2023/05/06 13:20:33;;;;;;;1.60;0.88;;;;;;;27.37;29.86;97960.13;8380937;28;20236;-69
2023/05/06 13:24:37;;;;;;;1.17;0.90;;;;;;;26.27;31.46;97965.28;8380950;28;20228;-69
2023/05/06 13:28:41;;;;;;;1.40;0.88;;;;;;;26.90;28.34;97956.53;8381260;28;20423;-70
2023/05/06 13:32:45;;;;;;;1.17;0.90;;;;;;;26.15;30.56;97959.47;8380981;28;20236;-70
2023/05/06 13:36:48;;;;;;;0.88;0.88;;;;;;;25.53;31.49;97957.25;8380953;28;20432;-70
2023/05/06 13:40:54;;;;;;;1.10;1.02;;;;;;;24.75;32.55;97955.66;8381019;28;20225;-69
2023/05/06 13:44:57;;;;;;;0.90;0.90;;;;;;;24.58;33.76;97952.13;8380449;28;20229;-69
2023/05/06 13:49:01;;;;;;;1.60;1.08;;;;;;;24.51;33.35;97958.97;8380550;28;20300;-69
2023/05/06 13:53:05;;;;;;;1.00;0.90;;;;;;;24.28;33.98;97956.84;8379951;28;20232;-69
2023/05/06 13:57:08;;;;;;;1.50;1.00;;;;;;;24.69;31.82;97945.69;8379927;28;20229;-69
2023/05/06 14:01:11;;;;;;;1.50;0.87;;;;;;;24.40;32.88;97941.53;8379811;28;20232;-69
2023/05/06 14:05:15;;;;;;;1.63;0.80;;;;;;;24.13;33.57;97945.16;8379636;28;20229;-68
2023/05/06 14:09:18;;;;;;;1.00;0.70;;;;;;;24.12;33.87;97938.22;8379118;28;20244;-70
2023/05/06 14:13:21;;;;;;;1.07;0.80;;;;;;;24.09;33.51;97930.59;8379472;28;20388;-69
2023/05/06 14:17:24;;;;;;;0.87;0.70;;;;;;;24.20;33.72;97919.75;8377707;28;20256;-69
2023/05/06 14:21:30;;;;;;;0.70;0.70;;;;;;;24.07;34.29;97922.00;8379057;28;20229;-70
2023/05/06 14:25:33;;;;;;;1.57;0.77;;;;;;;23.96;34.66;97923.06;8379375;28;20635;-68
2023/05/06 14:29:36;;;;;;;0.97;0.80;;;;;;;23.89;33.43;97906.97;8378971;28;20225;-70
2023/05/06 14:33:41;;;;;;;0.90;0.67;;;;;;;23.87;32.49;97919.50;8378916;28;20228;-69
2023/05/06 14:37:45;;;;;;;0.70;0.70;;;;;;;23.81;32.20;97910.38;8378121;28;20524;-68
2023/05/06 14:41:48;;;;;;;1.47;0.83;;;;;;;23.87;32.32;97903.66;8378533;28;20322;-69
2023/05/06 14:45:51;;;;;;;0.70;0.70;;;;;;;24.70;31.97;97908.47;8378241;28;20426;-69
2023/05/06 14:49:55;;;;;;;0.83;0.73;;;;;;;24.62;31.91;97897.88;8378745;28;20228;-69
2023/05/06 14:53:59;;;;;;;1.33;0.83;;;;;;;25.07;32.69;97904.63;8378317;28;20232;-69
2023/05/06 14:58:02;;;;;;;1.27;0.97;;;;;;;25.36;32.09;97898.94;8378830;28;20225;-70
2023/05/06 15:02:08;;;;;;;0.80;0.80;;;;;;;25.47;31.09;97897.78;8378674;28;20224;-70
2023/05/06 15:06:12;;;;;;;1.40;0.97;;;;;;;25.15;31.22;97882.63;8378755;28;20295;-69
2023/05/06 15:10:16;;;;;;;1.30;0.90;;;;;;;24.75;31.71;97897.41;8377964;28;20225;-69
2023/05/06 15:14:19;;;;;;;0.70;0.70;;;;;;;25.10;31.77;97899.00;8377913;28;20343;-70
2023/05/06 15:18:26;;;;;;;0.90;0.80;;;;;;;24.78;31.69;97826.41;8377914;28;20237;-70
2023/05/06 15:22:29;;;;;;;1.90;1.00;;;;;;;25.29;31.43;97881.19;8377728;28;20233;-68
2023/05/06 15:26:33;;;;;;;2.17;0.80;;;;;;;25.26;31.09;97886.81;8377255;28;20233;-70
2023/05/06 15:30:37;;;;;;;1.93;0.90;;;;;;;25.05;31.07;97880.09;8378313;28;20236;-69
2023/05/06 15:34:40;;;;;;;1.33;1.23;;;;;;;25.06;31.20;97883.63;8378268;28;20508;-70
2023/05/06 15:38:59;;;;;;;1.20;0.77;;;;;;;24.90;31.25;97879.06;8378109;28;20236;-71
2023/05/06 15:43:04;;;;;;;0.70;0.70;;;;;;;24.76;30.91;97875.22;8378338;28;20248;-69
2023/05/06 15:47:07;;;;;;;1.43;0.83;;;;;;;24.86;31.30;97870.63;8379925;28;20248;-70
2023/05/06 15:51:10;;;;;;;1.00;0.80;;;;;;;24.32;31.82;97889.41;8384415;28;20236;-70
2023/05/06 15:55:15;;;;;;;1.30;0.93;;;;;;;24.37;32.30;97884.47;8384031;28;20225;-69
2023/05/06 15:59:20;;;;;;;1.70;0.87;;;;;;;24.32;33.07;97878.81;8383907;28;20248;-71
2023/05/06 16:03:23;;;;;;;0.80;0.80;;;;;;;24.17;33.52;97886.50;8383561;28;20237;-69
2023/05/06 16:07:26;;;;;;;1.57;0.77;;;;;;;23.97;33.05;97887.69;8383605;28;20430;-71
2023/05/06 16:11:29;;;;;;;1.33;1.00;;;;;;;23.97;33.18;97885.88;8383123;28;20235;-71
2023/05/06 16:15:34;;;;;;;1.13;0.90;;;;;;;23.81;32.80;97844.28;8383053;28;20237;-71
2023/05/06 16:19:37;;;;;;;0.90;0.77;;;;;;;23.60;33.98;97875.47;8383037;28;20240;-69
2023/05/06 16:23:40;;;;;;;1.23;0.60;;;;;;;23.77;33.62;97897.59;8382939;28;20229;-70
2023/05/06 16:27:42;;;;;;;0.80;0.70;;;;;;;23.78;33.44;97892.19;8383013;28;20228;-71
2023/05/06 16:31:49;;;;;;;2.13;0.83;;;;;;;23.41;34.27;97889.69;8382803;28;20232;-69
2023/05/06 16:35:52;;;;;;;0.93;0.83;;;;;;;23.53;33.90;97890.28;8382972;28;20525;-69
2023/05/06 16:39:55;;;;;;;1.60;0.80;;;;;;;23.27;33.41;97898.16;8382405;28;20553;-70
2023/05/06 16:43:58;;;;;;;0.80;0.80;;;;;;;23.22;34.24;97895.94;8382523;28;20235;-70
2023/05/06 16:48:02;;;;;;;1.97;0.93;;;;;;;23.38;34.12;97869.69;8382347;28;20225;-71
2023/05/06 16:52:05;;;;;;;1.40;0.80;;;;;;;23.32;34.28;97891.44;8382241;28;20229;-70
2023/05/06 16:56:08;;;;;;;1.40;0.87;;;;;;;23.14;34.47;97875.56;8381930;28;20229;-71
2023/05/06 17:00:14;;;;;;;1.43;1.00;;;;;;;23.06;35.25;97880.78;8381516;28;20225;-70
2023/05/06 17:04:18;;;;;;;1.27;0.90;;;;;;;23.05;35.14;97891.47;8381485;28;20230;-71
2023/05/06 17:08:21;;;;;;;0.80;0.80;;;;;;;22.99;36.11;97885.75;8381351;28;20244;-70
2023/05/06 17:12:28;;;;;;;1.70;0.80;;;;;;;22.85;36.12;97883.66;8381620;28;20228;-70
2023/05/06 17:16:31;;;;;;;2.03;0.90;;;;;;;22.92;36.85;97889.97;8381456;28;20225;-71
2023/05/06 17:20:37;;;;;;;1.37;0.97;;;;;;;22.75;37.00;97878.41;8381469;28;20489;-70
2023/05/06 17:24:57;;;;;;;1.70;1.43;;;;;;;22.77;37.30;97887.03;8381128;28;20287;-70
2023/05/06 17:29:00;;;;;;;2.30;1.40;;;;;;;22.71;37.81;97884.94;8380724;28;20229;-70
2023/05/06 17:33:04;;;;;;;1.17;0.90;;;;;;;22.64;37.82;97881.25;8380517;28;20263;-70
2023/05/06 17:37:08;;;;;;;1.07;0.97;;;;;;;22.61;37.85;97886.81;8380129;28;20391;-70
2023/05/06 17:41:11;;;;;;;0.70;0.70;;;;;;;22.52;37.43;97877.13;8380484;28;20677;-69
2023/05/06 17:45:14;;;;;;;1.73;0.83;;;;;;;22.39;38.62;97878.31;8380077;28;20225;-70
2023/05/06 17:49:17;;;;;;;1.17;1.00;;;;;;;22.32;39.25;97879.84;8380021;28;20229;-70
2023/05/06 17:53:21;;;;;;;0.80;0.80;;;;;;;22.20;39.42;97875.69;8379533;28;20221;-71
2023/05/06 17:57:29;;;;;;;1.87;0.90;;;;;;;22.18;40.22;97881.13;8379811;28;20233;-70
2023/05/06 18:01:31;;;;;;;1.97;1.20;;;;;;;22.08;40.22;97882.13;8379491;28;20269;-70
2023/05/06 18:05:34;;;;;;;4.70;2.40;;;;;;;21.98;40.22;97882.97;8379258;28;20339;-69
2023/05/06 18:09:39;;;;;;;2.37;2.10;;;;;;;21.94;40.54;97873.69;8378493;28;20233;-70
2023/05/06 18:13:42;;;;;;;1.60;1.50;;;;;;;21.90;41.25;97876.75;8378981;28;20520;-70
2023/05/06 18:17:46;;;;;;;1.27;1.13;;;;;;;21.82;41.76;97880.91;8378974;28;20236;-70
2023/05/06 18:21:51;;;;;;;1.90;1.20;;;;;;;21.74;41.02;97890.50;8378529;28;20288;-71
2023/05/06 18:25:55;;;;;;;1.50;1.30;;;;;;;21.64;41.18;97890.50;8380374;28;20225;-71
2023/05/06 18:29:58;;;;;;;1.13;1.00;;;;;;;21.40;41.62;97878.56;8379247;28;20547;-69
2023/05/06 18:34:01;;;;;;;1.13;1.13;;;;;;;21.44;41.82;97898.41;8378674;28;20221;-70
2023/05/06 18:38:04;;;;;;;1.47;1.33;;;;;;;20.76;42.06;97794.81;8378378;28;20244;-70
2023/05/06 18:42:08;;;;;;;2.17;1.73;;;;;;;21.33;44.04;97897.69;8378716;28;20221;-71
2023/05/06 18:46:11;;;;;;;2.93;1.40;;;;;;;21.17;43.27;97901.69;8378609;28;20231;-71
2023/05/06 18:50:14;;;;;;;2.67;1.30;;;;;;;21.14;43.21;97911.66;8378490;28;20310;-70
2023/05/06 18:54:17;;;;;;;1.57;1.10;;;;;;;21.01;43.39;97904.84;8378481;28;20229;-69
2023/05/06 18:58:22;;;;;;;1.07;0.90;;;;;;;20.89;42.92;97908.56;8377701;28;20470;-70
2023/05/06 19:02:25;;;;;;;1.10;1.10;;;;;;;20.94;43.17;97916.03;8378107;28;20236;-71
2023/05/06 19:06:30;;;;;;;1.90;1.10;;;;;;;20.82;43.03;97895.09;8378303;28;20291;-70